sensor_id;sensor_type;location;lat;lon;timestamp;P1;durP1;ratioP1;P2;durP2;ratioP2
49123;SDS011;48506;48.202;16.274;2022-11-20T13:24:50;52.75;;;25.20;;
49123;SDS011;48506;48.202;16.274;2022-11-20T13:27:19;25.50;;;13.63;;
49123;SDS011;48506;48.202;16.274;2022-11-20T13:30:10;26.40;;;14.60;;
49123;SDS011;48506;48.202;16.274;2022-11-20T13:35:42;29.30;;;14.80;;
49123;SDS011;48506;48.202;16.274;2022-11-20T13:38:22;25.88;;;14.10;;
49123;SDS011;48506;48.202;16.274;2022-11-20T13:46:05;26.30;;;13.98;;
49123;SDS011;48506;48.202;16.274;2022-11-20T14:02:33;29.88;;;15.77;;
49123;SDS011;48506;48.202;16.274;2022-11-20T14:05:02;26.58;;;13.70;;
49123;SDS011;48506;48.202;16.274;2022-11-20T14:07:38;28.67;;;14.65;;
49123;SDS011;48506;48.202;16.274;2022-11-20T14:10:21;26.20;;;14.35;;
49123;SDS011;48506;48.202;16.274;2022-11-20T14:12:53;25.35;;;14.65;;
49123;SDS011;48506;48.202;16.274;2022-11-20T14:15:27;24.65;;;13.18;;
49123;SDS011;48506;48.202;16.274;2022-11-20T14:17:55;32.83;;;15.48;;
49123;SDS011;48506;48.202;16.274;2022-11-20T14:20:23;28.73;;;15.77;;
49123;SDS011;48506;48.202;16.274;2022-11-20T14:22:53;32.10;;;14.73;;
49123;SDS011;48506;48.202;16.274;2022-11-20T14:27:55;30.70;;;14.75;;
49123;SDS011;48506;48.202;16.274;2022-11-20T14:30:24;30.77;;;14.73;;
49123;SDS011;48506;48.202;16.274;2022-11-20T14:32:54;19.95;;;10.07;;
49123;SDS011;48506;48.202;16.274;2022-11-20T14:35:27;28.98;;;15.20;;
49123;SDS011;48506;48.202;16.274;2022-11-20T14:37:55;29.20;;;14.80;;
49123;SDS011;48506;48.202;16.274;2022-11-20T14:40:25;27.80;;;13.75;;
49123;SDS011;48506;48.202;16.274;2022-11-20T14:42:58;29.95;;;15.18;;
49123;SDS011;48506;48.202;16.274;2022-11-20T14:45:26;35.25;;;14.73;;
49123;SDS011;48506;48.202;16.274;2022-11-20T14:47:55;32.78;;;15.73;;
49123;SDS011;48506;48.202;16.274;2022-11-20T14:50:25;39.75;;;16.45;;
49123;SDS011;48506;48.202;16.274;2022-11-20T14:52:55;26.30;;;11.18;;
49123;SDS011;48506;48.202;16.274;2022-11-20T14:55:30;33.22;;;15.13;;
49123;SDS011;48506;48.202;16.274;2022-11-20T14:58:02;34.10;;;15.60;;
49123;SDS011;48506;48.202;16.274;2022-11-20T15:00:31;30.73;;;14.80;;
49123;SDS011;48506;48.202;16.274;2022-11-20T15:03:00;34.60;;;16.38;;
49123;SDS011;48506;48.202;16.274;2022-11-20T15:05:45;39.13;;;16.60;;
49123;SDS011;48506;48.202;16.274;2022-11-20T15:08:13;34.85;;;16.48;;
49123;SDS011;48506;48.202;16.274;2022-11-20T15:10:45;34.45;;;15.95;;
49123;SDS011;48506;48.202;16.274;2022-11-20T15:16:28;33.47;;;15.25;;
49123;SDS011;48506;48.202;16.274;2022-11-20T15:18:54;36.35;;;15.57;;
49123;SDS011;48506;48.202;16.274;2022-11-20T15:21:22;42.45;;;16.52;;
49123;SDS011;48506;48.202;16.274;2022-11-20T15:23:50;34.08;;;16.48;;
49123;SDS011;48506;48.202;16.274;2022-11-20T15:26:20;31.00;;;14.60;;
49123;SDS011;48506;48.202;16.274;2022-11-20T15:28:51;38.25;;;16.65;;
49123;SDS011;48506;48.202;16.274;2022-11-20T15:31:19;35.95;;;15.25;;
49123;SDS011;48506;48.202;16.274;2022-11-20T15:33:48;37.88;;;17.63;;
49123;SDS011;48506;48.202;16.274;2022-11-20T15:36:16;35.83;;;15.50;;
49123;SDS011;48506;48.202;16.274;2022-11-20T15:38:43;40.40;;;17.08;;
49123;SDS011;48506;48.202;16.274;2022-11-20T15:41:10;36.10;;;17.13;;
49123;SDS011;48506;48.202;16.274;2022-11-20T15:43:37;40.70;;;16.38;;
49123;SDS011;48506;48.202;16.274;2022-11-20T15:46:05;39.78;;;17.48;;
49123;SDS011;48506;48.202;16.274;2022-11-20T15:48:38;34.47;;;15.35;;
49123;SDS011;48506;48.202;16.274;2022-11-20T15:53:38;37.22;;;16.60;;
49123;SDS011;48506;48.202;16.274;2022-11-20T15:56:07;30.73;;;15.60;;
49123;SDS011;48506;48.202;16.274;2022-11-20T15:58:37;37.35;;;16.02;;
49123;SDS011;48506;48.202;16.274;2022-11-20T16:01:04;40.05;;;14.82;;
49123;SDS011;48506;48.202;16.274;2022-11-20T16:03:30;40.63;;;15.15;;
49123;SDS011;48506;48.202;16.274;2022-11-20T16:05:58;40.15;;;16.58;;
49123;SDS011;48506;48.202;16.274;2022-11-20T16:08:25;43.97;;;18.05;;
49123;SDS011;48506;48.202;16.274;2022-11-20T16:10:51;38.53;;;17.42;;
49123;SDS011;48506;48.202;16.274;2022-11-20T16:13:18;34.78;;;15.77;;
49123;SDS011;48506;48.202;16.274;2022-11-20T16:16:04;36.97;;;17.02;;
49123;SDS011;48506;48.202;16.274;2022-11-20T16:18:36;38.30;;;16.65;;
49123;SDS011;48506;48.202;16.274;2022-11-20T16:21:03;34.58;;;16.33;;
49123;SDS011;48506;48.202;16.274;2022-11-20T16:23:31;38.78;;;17.20;;
49123;SDS011;48506;48.202;16.274;2022-11-20T16:25:58;41.80;;;15.40;;
49123;SDS011;48506;48.202;16.274;2022-11-20T16:28:25;35.83;;;15.60;;
49123;SDS011;48506;48.202;16.274;2022-11-20T16:30:53;42.45;;;16.67;;
49123;SDS011;48506;48.202;16.274;2022-11-20T16:33:20;35.92;;;15.18;;
49123;SDS011;48506;48.202;16.274;2022-11-20T16:35:48;37.05;;;15.60;;
49123;SDS011;48506;48.202;16.274;2022-11-20T16:38:15;32.20;;;15.63;;
49123;SDS011;48506;48.202;16.274;2022-11-20T16:40:43;36.03;;;15.93;;
49123;SDS011;48506;48.202;16.274;2022-11-20T16:43:10;32.22;;;15.65;;
49123;SDS011;48506;48.202;16.274;2022-11-20T16:45:43;33.65;;;15.15;;
49123;SDS011;48506;48.202;16.274;2022-11-20T16:48:14;36.45;;;15.52;;
49123;SDS011;48506;48.202;16.274;2022-11-20T16:50:51;43.42;;;17.48;;
49123;SDS011;48506;48.202;16.274;2022-11-20T16:53:19;52.05;;;18.05;;
49123;SDS011;48506;48.202;16.274;2022-11-20T16:55:48;38.72;;;16.77;;
49123;SDS011;48506;48.202;16.274;2022-11-20T16:58:14;39.42;;;18.48;;
49123;SDS011;48506;48.202;16.274;2022-11-20T17:00:41;37.78;;;15.80;;
49123;SDS011;48506;48.202;16.274;2022-11-20T17:03:07;40.65;;;16.73;;
49123;SDS011;48506;48.202;16.274;2022-11-20T17:05:35;34.30;;;14.52;;
49123;SDS011;48506;48.202;16.274;2022-11-20T17:08:02;42.65;;;18.85;;
49123;SDS011;48506;48.202;16.274;2022-11-20T17:10:29;41.30;;;17.08;;
49123;SDS011;48506;48.202;16.274;2022-11-20T17:12:58;40.95;;;15.88;;
49123;SDS011;48506;48.202;16.274;2022-11-20T17:15:24;44.63;;;17.52;;
49123;SDS011;48506;48.202;16.274;2022-11-20T17:17:51;39.25;;;17.25;;
49123;SDS011;48506;48.202;16.274;2022-11-20T17:20:19;39.28;;;16.73;;
49123;SDS011;48506;48.202;16.274;2022-11-20T17:22:46;37.38;;;15.82;;
49123;SDS011;48506;48.202;16.274;2022-11-20T17:25:13;42.72;;;16.33;;
49123;SDS011;48506;48.202;16.274;2022-11-20T17:27:39;56.90;;;19.95;;
49123;SDS011;48506;48.202;16.274;2022-11-20T17:30:07;46.88;;;18.30;;
49123;SDS011;48506;48.202;16.274;2022-11-20T17:32:34;49.10;;;18.55;;
49123;SDS011;48506;48.202;16.274;2022-11-20T17:35:01;40.17;;;16.92;;
49123;SDS011;48506;48.202;16.274;2022-11-20T17:37:28;38.42;;;17.35;;
49123;SDS011;48506;48.202;16.274;2022-11-20T17:39:54;31.80;;;15.07;;
49123;SDS011;48506;48.202;16.274;2022-11-20T17:42:22;34.22;;;16.48;;
49123;SDS011;48506;48.202;16.274;2022-11-20T17:44:51;41.65;;;16.15;;
49123;SDS011;48506;48.202;16.274;2022-11-20T17:47:18;41.90;;;17.25;;
49123;SDS011;48506;48.202;16.274;2022-11-20T17:49:45;41.72;;;17.23;;
49123;SDS011;48506;48.202;16.274;2022-11-20T17:52:11;40.20;;;15.45;;
49123;SDS011;48506;48.202;16.274;2022-11-20T17:54:38;38.15;;;16.42;;
49123;SDS011;48506;48.202;16.274;2022-11-20T17:57:07;43.00;;;16.58;;
49123;SDS011;48506;48.202;16.274;2022-11-20T17:59:52;35.85;;;15.85;;
49123;SDS011;48506;48.202;16.274;2022-11-20T18:02:19;36.47;;;15.57;;
49123;SDS011;48506;48.202;16.274;2022-11-20T18:04:46;30.52;;;16.50;;
49123;SDS011;48506;48.202;16.274;2022-11-20T18:07:12;39.22;;;16.23;;
49123;SDS011;48506;48.202;16.274;2022-11-20T18:09:38;43.85;;;15.63;;
49123;SDS011;48506;48.202;16.274;2022-11-20T18:12:05;38.15;;;16.25;;
49123;SDS011;48506;48.202;16.274;2022-11-20T18:14:32;39.28;;;18.50;;
49123;SDS011;48506;48.202;16.274;2022-11-20T18:17:08;36.42;;;16.63;;
49123;SDS011;48506;48.202;16.274;2022-11-20T18:19:38;33.60;;;14.85;;
49123;SDS011;48506;48.202;16.274;2022-11-20T18:22:06;26.83;;;13.48;;
49123;SDS011;48506;48.202;16.274;2022-11-20T18:24:33;22.70;;;11.93;;
49123;SDS011;48506;48.202;16.274;2022-11-20T18:27:02;29.55;;;13.73;;
49123;SDS011;48506;48.202;16.274;2022-11-20T18:29:30;28.55;;;12.95;;
49123;SDS011;48506;48.202;16.274;2022-11-20T18:31:57;26.38;;;11.57;;
49123;SDS011;48506;48.202;16.274;2022-11-20T18:34:25;25.20;;;11.88;;
49123;SDS011;48506;48.202;16.274;2022-11-20T18:36:53;23.42;;;11.13;;
49123;SDS011;48506;48.202;16.274;2022-11-20T18:39:20;21.92;;;12.20;;
49123;SDS011;48506;48.202;16.274;2022-11-20T18:41:49;20.60;;;10.38;;
49123;SDS011;48506;48.202;16.274;2022-11-20T18:44:34;22.67;;;10.38;;
49123;SDS011;48506;48.202;16.274;2022-11-20T18:47:17;21.67;;;10.15;;
49123;SDS011;48506;48.202;16.274;2022-11-20T18:52:22;25.23;;;10.52;;
49123;SDS011;48506;48.202;16.274;2022-11-20T18:55:03;17.67;;;9.32;;
49123;SDS011;48506;48.202;16.274;2022-11-20T18:57:31;24.10;;;8.85;;
49123;SDS011;48506;48.202;16.274;2022-11-20T18:59:59;17.65;;;8.45;;
49123;SDS011;48506;48.202;16.274;2022-11-20T19:02:27;21.92;;;8.48;;
49123;SDS011;48506;48.202;16.274;2022-11-20T19:04:54;21.42;;;9.75;;
49123;SDS011;48506;48.202;16.274;2022-11-20T19:07:22;18.92;;;8.80;;
49123;SDS011;48506;48.202;16.274;2022-11-20T19:09:50;20.80;;;8.63;;
49123;SDS011;48506;48.202;16.274;2022-11-20T19:12:18;19.52;;;10.23;;
49123;SDS011;48506;48.202;16.274;2022-11-20T19:14:46;22.52;;;9.85;;
49123;SDS011;48506;48.202;16.274;2022-11-20T19:17:13;32.30;;;13.57;;
49123;SDS011;48506;48.202;16.274;2022-11-20T19:19:42;32.55;;;15.48;;
49123;SDS011;48506;48.202;16.274;2022-11-20T19:22:09;29.98;;;14.63;;
49123;SDS011;48506;48.202;16.274;2022-11-20T19:24:36;28.15;;;13.73;;
49123;SDS011;48506;48.202;16.274;2022-11-20T19:27:03;29.88;;;15.02;;
49123;SDS011;48506;48.202;16.274;2022-11-20T19:29:29;31.30;;;15.00;;
49123;SDS011;48506;48.202;16.274;2022-11-20T19:31:56;35.15;;;13.88;;
49123;SDS011;48506;48.202;16.274;2022-11-20T19:34:23;31.30;;;14.15;;
49123;SDS011;48506;48.202;16.274;2022-11-20T19:36:50;27.92;;;14.18;;
49123;SDS011;48506;48.202;16.274;2022-11-20T19:39:17;33.95;;;15.95;;
49123;SDS011;48506;48.202;16.274;2022-11-20T19:41:44;30.60;;;14.68;;
49123;SDS011;48506;48.202;16.274;2022-11-20T19:44:13;22.83;;;11.30;;
49123;SDS011;48506;48.202;16.274;2022-11-20T19:46:42;29.90;;;13.93;;
49123;SDS011;48506;48.202;16.274;2022-11-20T19:49:10;27.77;;;15.13;;
49123;SDS011;48506;48.202;16.274;2022-11-20T19:51:44;32.03;;;14.63;;
49123;SDS011;48506;48.202;16.274;2022-11-20T19:54:12;27.63;;;14.32;;
49123;SDS011;48506;48.202;16.274;2022-11-20T19:56:40;24.15;;;14.05;;
49123;SDS011;48506;48.202;16.274;2022-11-20T19:59:06;30.45;;;14.00;;
49123;SDS011;48506;48.202;16.274;2022-11-20T20:01:33;31.52;;;15.20;;
49123;SDS011;48506;48.202;16.274;2022-11-20T20:04:00;26.42;;;14.00;;
49123;SDS011;48506;48.202;16.274;2022-11-20T20:06:28;32.80;;;17.23;;
49123;SDS011;48506;48.202;16.274;2022-11-20T20:09:06;28.15;;;13.13;;
49123;SDS011;48506;48.202;16.274;2022-11-20T20:11:34;29.58;;;13.40;;
49123;SDS011;48506;48.202;16.274;2022-11-20T20:14:05;28.40;;;13.90;;
49123;SDS011;48506;48.202;16.274;2022-11-20T20:16:33;31.80;;;13.85;;
49123;SDS011;48506;48.202;16.274;2022-11-20T20:19:01;29.55;;;13.13;;
49123;SDS011;48506;48.202;16.274;2022-11-20T20:21:30;28.35;;;12.20;;
49123;SDS011;48506;48.202;16.274;2022-11-20T20:26:26;26.33;;;12.38;;
49123;SDS011;48506;48.202;16.274;2022-11-20T20:28:57;27.65;;;11.38;;
49123;SDS011;48506;48.202;16.274;2022-11-20T20:31:27;18.50;;;10.18;;
49123;SDS011;48506;48.202;16.274;2022-11-20T20:33:56;19.52;;;8.93;;
49123;SDS011;48506;48.202;16.274;2022-11-20T20:36:25;11.65;;;6.43;;
49123;SDS011;48506;48.202;16.274;2022-11-20T20:38:53;17.80;;;6.47;;
49123;SDS011;48506;48.202;16.274;2022-11-20T20:41:21;11.20;;;5.70;;
49123;SDS011;48506;48.202;16.274;2022-11-20T20:43:51;8.93;;;5.17;;
49123;SDS011;48506;48.202;16.274;2022-11-20T20:46:37;17.00;;;6.28;;
49123;SDS011;48506;48.202;16.274;2022-11-20T20:49:04;17.80;;;9.15;;
49123;SDS011;48506;48.202;16.274;2022-11-20T20:51:32;20.40;;;8.85;;
49123;SDS011;48506;48.202;16.274;2022-11-20T20:54:00;23.55;;;9.07;;
49123;SDS011;48506;48.202;16.274;2022-11-20T20:56:27;24.67;;;12.23;;
49123;SDS011;48506;48.202;16.274;2022-11-20T20:58:54;22.60;;;10.10;;
49123;SDS011;48506;48.202;16.274;2022-11-20T21:01:20;16.65;;;10.43;;
49123;SDS011;48506;48.202;16.274;2022-11-20T21:03:50;17.73;;;8.75;;
49123;SDS011;48506;48.202;16.274;2022-11-20T21:06:16;26.50;;;10.80;;
49123;SDS011;48506;48.202;16.274;2022-11-20T21:08:42;23.65;;;10.73;;
49123;SDS011;48506;48.202;16.274;2022-11-20T21:11:12;18.77;;;10.18;;
49123;SDS011;48506;48.202;16.274;2022-11-20T21:13:40;17.47;;;9.30;;
49123;SDS011;48506;48.202;16.274;2022-11-20T21:16:09;18.75;;;10.68;;
49123;SDS011;48506;48.202;16.274;2022-11-20T21:18:36;18.80;;;9.18;;
49123;SDS011;48506;48.202;16.274;2022-11-20T21:21:07;21.55;;;9.38;;
49123;SDS011;48506;48.202;16.274;2022-11-20T21:23:54;16.48;;;8.82;;
49123;SDS011;48506;48.202;16.274;2022-11-20T21:26:21;19.45;;;9.73;;
49123;SDS011;48506;48.202;16.274;2022-11-20T21:28:48;18.80;;;8.40;;
49123;SDS011;48506;48.202;16.274;2022-11-20T21:31:16;16.55;;;7.70;;
49123;SDS011;48506;48.202;16.274;2022-11-20T21:33:47;14.88;;;8.57;;
49123;SDS011;48506;48.202;16.274;2022-11-20T21:36:15;12.25;;;6.70;;
49123;SDS011;48506;48.202;16.274;2022-11-20T21:38:44;14.55;;;7.30;;
49123;SDS011;48506;48.202;16.274;2022-11-20T21:41:12;14.23;;;8.23;;
49123;SDS011;48506;48.202;16.274;2022-11-20T21:43:39;14.13;;;7.90;;
49123;SDS011;48506;48.202;16.274;2022-11-20T21:46:08;14.32;;;7.47;;
49123;SDS011;48506;48.202;16.274;2022-11-20T21:48:37;14.60;;;8.50;;
49123;SDS011;48506;48.202;16.274;2022-11-20T21:51:05;17.30;;;8.32;;
49123;SDS011;48506;48.202;16.274;2022-11-20T21:53:33;18.25;;;9.57;;
49123;SDS011;48506;48.202;16.274;2022-11-20T21:55:59;19.15;;;9.13;;
49123;SDS011;48506;48.202;16.274;2022-11-20T21:58:29;14.13;;;8.43;;
49123;SDS011;48506;48.202;16.274;2022-11-20T22:00:55;16.88;;;8.30;;
49123;SDS011;48506;48.202;16.274;2022-11-20T22:03:21;17.67;;;9.15;;
49123;SDS011;48506;48.202;16.274;2022-11-20T22:05:54;16.13;;;8.73;;
49123;SDS011;48506;48.202;16.274;2022-11-20T22:08:22;17.75;;;8.48;;
49123;SDS011;48506;48.202;16.274;2022-11-20T22:10:59;16.45;;;7.60;;
49123;SDS011;48506;48.202;16.274;2022-11-20T22:13:27;15.20;;;7.18;;
49123;SDS011;48506;48.202;16.274;2022-11-20T22:16:13;15.60;;;7.05;;
49123;SDS011;48506;48.202;16.274;2022-11-20T22:18:50;9.02;;;4.13;;
49123;SDS011;48506;48.202;16.274;2022-11-20T22:21:18;7.75;;;4.28;;
49123;SDS011;48506;48.202;16.274;2022-11-20T22:23:47;7.45;;;4.55;;
49123;SDS011;48506;48.202;16.274;2022-11-20T22:26:14;5.72;;;3.10;;
49123;SDS011;48506;48.202;16.274;2022-11-20T22:28:44;5.97;;;2.92;;
49123;SDS011;48506;48.202;16.274;2022-11-20T22:31:13;7.22;;;3.40;;
49123;SDS011;48506;48.202;16.274;2022-11-20T22:33:39;11.48;;;6.28;;
49123;SDS011;48506;48.202;16.274;2022-11-20T22:36:06;27.77;;;10.38;;
49123;SDS011;48506;48.202;16.274;2022-11-20T22:38:34;31.00;;;11.40;;
49123;SDS011;48506;48.202;16.274;2022-11-20T22:41:05;38.17;;;11.82;;
49123;SDS011;48506;48.202;16.274;2022-11-20T22:43:33;32.17;;;12.15;;
49123;SDS011;48506;48.202;16.274;2022-11-20T22:46:04;30.00;;;9.93;;
49123;SDS011;48506;48.202;16.274;2022-11-20T22:48:34;27.05;;;10.82;;
49123;SDS011;48506;48.202;16.274;2022-11-20T22:51:06;22.80;;;10.65;;
49123;SDS011;48506;48.202;16.274;2022-11-20T22:53:34;26.05;;;10.05;;
49123;SDS011;48506;48.202;16.274;2022-11-20T22:56:00;22.23;;;9.82;;
49123;SDS011;48506;48.202;16.274;2022-11-20T22:58:27;18.35;;;10.27;;
49123;SDS011;48506;48.202;16.274;2022-11-20T23:00:54;18.17;;;9.68;;
49123;SDS011;48506;48.202;16.274;2022-11-20T23:03:22;18.90;;;9.57;;
49123;SDS011;48506;48.202;16.274;2022-11-20T23:05:48;19.50;;;10.13;;
49123;SDS011;48506;48.202;16.274;2022-11-20T23:08:14;20.00;;;7.43;;
49123;SDS011;48506;48.202;16.274;2022-11-20T23:10:40;10.20;;;6.15;;
49123;SDS011;48506;48.202;16.274;2022-11-20T23:13:06;10.30;;;4.47;;
49123;SDS011;48506;48.202;16.274;2022-11-20T23:15:32;12.40;;;4.63;;
49123;SDS011;48506;48.202;16.274;2022-11-20T23:17:59;7.35;;;4.10;;
49123;SDS011;48506;48.202;16.274;2022-11-20T23:20:26;6.40;;;2.97;;
49123;SDS011;48506;48.202;16.274;2022-11-20T23:22:52;9.50;;;3.83;;
49123;SDS011;48506;48.202;16.274;2022-11-20T23:25:19;7.13;;;3.22;;
49123;SDS011;48506;48.202;16.274;2022-11-20T23:27:44;7.78;;;3.20;;
49123;SDS011;48506;48.202;16.274;2022-11-20T23:30:11;5.10;;;3.30;;
49123;SDS011;48506;48.202;16.274;2022-11-20T23:32:38;5.60;;;3.28;;
49123;SDS011;48506;48.202;16.274;2022-11-20T23:35:05;4.53;;;2.60;;
49123;SDS011;48506;48.202;16.274;2022-11-20T23:37:31;11.48;;;4.97;;
49123;SDS011;48506;48.202;16.274;2022-11-20T23:39:57;11.27;;;5.07;;
49123;SDS011;48506;48.202;16.274;2022-11-20T23:42:23;8.05;;;3.90;;
49123;SDS011;48506;48.202;16.274;2022-11-20T23:44:48;6.43;;;3.60;;
49123;SDS011;48506;48.202;16.274;2022-11-20T23:47:14;9.30;;;5.97;;
49123;SDS011;48506;48.202;16.274;2022-11-20T23:49:40;15.35;;;7.25;;
49123;SDS011;48506;48.202;16.274;2022-11-20T23:52:06;14.15;;;7.43;;
49123;SDS011;48506;48.202;16.274;2022-11-20T23:54:32;15.60;;;8.82;;
49123;SDS011;48506;48.202;16.274;2022-11-20T23:56:58;11.35;;;7.00;;
49123;SDS011;48506;48.202;16.274;2022-11-20T23:59:24;13.93;;;7.40;;
